Airfield :
LOGIN :

Register | Disclaimer

   EN    FR    IT 

 










Legend :    VFR   Marginal VFR   IFR   Intensive IFR   Very Intensive IFR
Visi :
Ceiling :
>= 8 km
>= 3000ft
5 to 8 km
1000 to 3000 ft
1500m to 5 km
500 to 1000 ft
800 to 1500m
200 to 500 ft
< 800m
< 200 ft
Symbols :   Thunderstorms  Fog  Heavy snow  Heavy precipitations  Wind > 20 kt
SIGMETs :     Misc.  Thunderstorms  Icing  Turbulence  Mountain Waves  Volcanic Ashes






- Airport Elevation : 915 ft
- IATA code : LUG


LSZA - Lugano

CURRENT METAR :
  • 211250Z 36012KT 330V030 9999 FEW049 SCT070 BKN080 12/M04 Q1011

EXPIRED METARs :
  • 211220Z 01012KT 340V050 9999 FEW080 BKN090 13/M03 Q1011
  • 211150Z AUTO VRB02KT 9999 FEW090 SCT100 BKN110 14/M06 Q1011
  • 211120Z 20005KT 160V230 9999 FEW075 BKN100 14/M05 Q1011
  • 211050Z AUTO 20006KT 160V220 9999 FEW075 SCT090 BKN100 14/M05 Q1012
  • 211020Z AUTO 19005KT 9999 FEW085 BKN095 13/M05 Q1012
  • 210950Z 19008KT 9999 FEW100 12/M04 Q1012
  • 210920Z 19006KT 150V220 9999 FEW100 12/M03 Q1012
  • 210850Z 20006KT 9999 FEW100 12/M03 Q1013
  • 210820Z AUTO 19005KT CAVOK 12/M02 Q1013

TAF TAF LSZA
Valid from the 21 at 12:00 until the 21 at 21:00 UTC


211125Z 2112/2121 20006KT 9999 FEW075 SCT090 BKN100
PROB40
TEMPO 2112/2121 01010KT SHRA FEW080TCU
ATIS : +41 22 417 40 88



MET'MAP, your aeronautical weather chart ! - Copyright ORBIFLY December 2007 - Disclaimer

ORBIFLY MET'MAP TEAM :

Programming & Development : Alexandra Zaïnal
Original concept : Baudouin d'Aumeries
Technical & hardware support : Manuel Goepfert
Assistance : Marc-Olivier Méhu




SOURCES & CREDITS :

   NOAA